sensor_id;sensor_type;location;lat;lon;timestamp;P1;durP1;ratioP1;P2;durP2;ratioP2
10489;SDS011;35569;48.402;10.670;2023-12-22T00:00:19;0.40;;;0.40;;
10489;SDS011;35569;48.402;10.670;2023-12-22T00:00:51;0.50;;;0.50;;
10489;SDS011;35569;48.402;10.670;2023-12-22T00:01:24;0.53;;;0.53;;
10489;SDS011;35569;48.402;10.670;2023-12-22T00:01:59;0.43;;;0.33;;
10489;SDS011;35569;48.402;10.670;2023-12-22T00:02:32;0.33;;;0.33;;
10489;SDS011;35569;48.402;10.670;2023-12-22T00:03:04;0.40;;;0.40;;
10489;SDS011;35569;48.402;10.670;2023-12-22T00:03:37;0.63;;;0.50;;
10489;SDS011;35569;48.402;10.670;2023-12-22T00:04:12;0.60;;;0.40;;
10489;SDS011;35569;48.402;10.670;2023-12-22T00:04:44;0.50;;;0.50;;
10489;SDS011;35569;48.402;10.670;2023-12-22T00:05:17;0.50;;;0.50;;
10489;SDS011;35569;48.402;10.670;2023-12-22T00:05:52;0.50;;;0.50;;
10489;SDS011;35569;48.402;10.670;2023-12-22T00:06:24;0.43;;;0.40;;
10489;SDS011;35569;48.402;10.670;2023-12-22T00:06:57;0.50;;;0.40;;
10489;SDS011;35569;48.402;10.670;2023-12-22T00:07:29;0.53;;;0.47;;
10489;SDS011;35569;48.402;10.670;2023-12-22T00:08:05;0.40;;;0.40;;
10489;SDS011;35569;48.402;10.670;2023-12-22T00:08:38;0.50;;;0.50;;
10489;SDS011;35569;48.402;10.670;2023-12-22T00:09:10;0.97;;;0.67;;
10489;SDS011;35569;48.402;10.670;2023-12-22T00:09:45;1.90;;;1.80;;
10489;SDS011;35569;48.402;10.670;2023-12-22T00:10:20;1.27;;;1.27;;
10489;SDS011;35569;48.402;10.670;2023-12-22T00:10:53;1.10;;;0.57;;
10489;SDS011;35569;48.402;10.670;2023-12-22T00:11:25;0.50;;;0.50;;
10489;SDS011;35569;48.402;10.670;2023-12-22T00:12:00;0.60;;;0.50;;
10489;SDS011;35569;48.402;10.670;2023-12-22T00:12:33;0.83;;;0.50;;
10489;SDS011;35569;48.402;10.670;2023-12-22T00:13:06;1.67;;;0.50;;
10489;SDS011;35569;48.402;10.670;2023-12-22T00:13:38;0.40;;;0.40;;
10489;SDS011;35569;48.402;10.670;2023-12-22T00:14:13;0.43;;;0.43;;
10489;SDS011;35569;48.402;10.670;2023-12-22T00:14:46;0.53;;;0.53;;
10489;SDS011;35569;48.402;10.670;2023-12-22T00:15:18;0.67;;;0.67;;
10489;SDS011;35569;48.402;10.670;2023-12-22T00:15:51;0.43;;;0.43;;
10489;SDS011;35569;48.402;10.670;2023-12-22T00:16:26;1.03;;;0.50;;
10489;SDS011;35569;48.402;10.670;2023-12-22T00:16:58;3.07;;;0.50;;
10489;SDS011;35569;48.402;10.670;2023-12-22T00:17:30;0.40;;;0.40;;
10489;SDS011;35569;48.402;10.670;2023-12-22T00:18:03;0.40;;;0.40;;
10489;SDS011;35569;48.402;10.670;2023-12-22T00:18:38;0.40;;;0.40;;
10489;SDS011;35569;48.402;10.670;2023-12-22T00:19:11;0.50;;;0.50;;
10489;SDS011;35569;48.402;10.670;2023-12-22T00:19:44;0.90;;;0.70;;
10489;SDS011;35569;48.402;10.670;2023-12-22T00:20:19;0.40;;;0.40;;
10489;SDS011;35569;48.402;10.670;2023-12-22T00:20:51;0.50;;;0.50;;
10489;SDS011;35569;48.402;10.670;2023-12-22T00:21:24;0.50;;;0.50;;
10489;SDS011;35569;48.402;10.670;2023-12-22T00:21:58;0.50;;;0.50;;
10489;SDS011;35569;48.402;10.670;2023-12-22T00:22:35;0.50;;;0.50;;
10489;SDS011;35569;48.402;10.670;2023-12-22T00:23:07;0.93;;;0.40;;
10489;SDS011;35569;48.402;10.670;2023-12-22T00:23:40;0.60;;;0.60;;
10489;SDS011;35569;48.402;10.670;2023-12-22T00:24:12;1.30;;;0.47;;
10489;SDS011;35569;48.402;10.670;2023-12-22T00:24:47;0.50;;;0.50;;
10489;SDS011;35569;48.402;10.670;2023-12-22T00:25:22;0.50;;;0.50;;
10489;SDS011;35569;48.402;10.670;2023-12-22T00:25:55;0.50;;;0.50;;
10489;SDS011;35569;48.402;10.670;2023-12-22T00:26:27;0.50;;;0.50;;
10489;SDS011;35569;48.402;10.670;2023-12-22T00:27:03;0.50;;;0.50;;
10489;SDS011;35569;48.402;10.670;2023-12-22T00:27:36;0.60;;;0.60;;
10489;SDS011;35569;48.402;10.670;2023-12-22T00:28:08;0.50;;;0.50;;
10489;SDS011;35569;48.402;10.670;2023-12-22T00:28:41;0.40;;;0.40;;
10489;SDS011;35569;48.402;10.670;2023-12-22T00:29:14;0.47;;;0.47;;
10489;SDS011;35569;48.402;10.670;2023-12-22T00:29:51;0.60;;;0.60;;
10489;SDS011;35569;48.402;10.670;2023-12-22T00:30:24;0.40;;;0.40;;
10489;SDS011;35569;48.402;10.670;2023-12-22T00:30:56;0.57;;;0.57;;
10489;SDS011;35569;48.402;10.670;2023-12-22T00:31:29;0.50;;;0.50;;
10489;SDS011;35569;48.402;10.670;2023-12-22T00:32:04;0.50;;;0.50;;
10489;SDS011;35569;48.402;10.670;2023-12-22T00:32:38;0.70;;;0.50;;
10489;SDS011;35569;48.402;10.670;2023-12-22T00:33:10;0.60;;;0.60;;
10489;SDS011;35569;48.402;10.670;2023-12-22T00:33:43;1.07;;;0.40;;
10489;SDS011;35569;48.402;10.670;2023-12-22T00:34:19;0.60;;;0.60;;
10489;SDS011;35569;48.402;10.670;2023-12-22T00:34:53;0.80;;;0.80;;
10489;SDS011;35569;48.402;10.670;2023-12-22T00:35:26;0.60;;;0.60;;
10489;SDS011;35569;48.402;10.670;2023-12-22T00:35:58;0.50;;;0.50;;
10489;SDS011;35569;48.402;10.670;2023-12-22T00:36:33;0.50;;;0.50;;
10489;SDS011;35569;48.402;10.670;2023-12-22T00:37:05;5.60;;;0.70;;
10489;SDS011;35569;48.402;10.670;2023-12-22T00:37:38;0.50;;;0.50;;
10489;SDS011;35569;48.402;10.670;2023-12-22T00:38:10;0.63;;;0.63;;
10489;SDS011;35569;48.402;10.670;2023-12-22T00:38:45;3.03;;;0.50;;
10489;SDS011;35569;48.402;10.670;2023-12-22T00:39:18;0.60;;;0.60;;
10489;SDS011;35569;48.402;10.670;2023-12-22T00:39:50;0.67;;;0.67;;
10489;SDS011;35569;48.402;10.670;2023-12-22T00:40:28;0.63;;;0.63;;
10489;SDS011;35569;48.402;10.670;2023-12-22T00:41:03;1.20;;;0.70;;
10489;SDS011;35569;48.402;10.670;2023-12-22T00:41:35;0.90;;;0.70;;
10489;SDS011;35569;48.402;10.670;2023-12-22T00:42:08;0.50;;;0.50;;
10489;SDS011;35569;48.402;10.670;2023-12-22T00:42:40;1.27;;;0.70;;
10489;SDS011;35569;48.402;10.670;2023-12-22T00:43:15;0.87;;;0.67;;
10489;SDS011;35569;48.402;10.670;2023-12-22T00:43:48;0.73;;;0.70;;
10489;SDS011;35569;48.402;10.670;2023-12-22T00:44:20;0.63;;;0.63;;
10489;SDS011;35569;48.402;10.670;2023-12-22T00:44:52;0.70;;;0.70;;
10489;SDS011;35569;48.402;10.670;2023-12-22T00:45:27;0.80;;;0.80;;
10489;SDS011;35569;48.402;10.670;2023-12-22T00:46:00;1.13;;;1.07;;
10489;SDS011;35569;48.402;10.670;2023-12-22T00:46:32;0.90;;;0.90;;
10489;SDS011;35569;48.402;10.670;2023-12-22T00:47:05;1.07;;;1.07;;
10489;SDS011;35569;48.402;10.670;2023-12-22T00:47:40;1.03;;;1.03;;
10489;SDS011;35569;48.402;10.670;2023-12-22T00:48:12;0.97;;;0.97;;
10489;SDS011;35569;48.402;10.670;2023-12-22T00:48:45;2.77;;;0.97;;
10489;SDS011;35569;48.402;10.670;2023-12-22T00:49:20;1.00;;;1.00;;
10489;SDS011;35569;48.402;10.670;2023-12-22T00:49:53;3.40;;;3.30;;
10489;SDS011;35569;48.402;10.670;2023-12-22T00:50:26;5.60;;;5.40;;
10489;SDS011;35569;48.402;10.670;2023-12-22T00:50:58;2.80;;;2.70;;
10489;SDS011;35569;48.402;10.670;2023-12-22T00:51:33;1.53;;;1.53;;
10489;SDS011;35569;48.402;10.670;2023-12-22T00:52:06;1.53;;;1.43;;
10489;SDS011;35569;48.402;10.670;2023-12-22T00:52:38;1.47;;;1.47;;
10489;SDS011;35569;48.402;10.670;2023-12-22T00:53:10;1.93;;;1.93;;
10489;SDS011;35569;48.402;10.670;2023-12-22T00:53:45;2.37;;;2.37;;
10489;SDS011;35569;48.402;10.670;2023-12-22T00:54:18;2.70;;;2.60;;
10489;SDS011;35569;48.402;10.670;2023-12-22T00:54:50;2.63;;;2.53;;
10489;SDS011;35569;48.402;10.670;2023-12-22T00:55:28;3.40;;;3.20;;
10489;SDS011;35569;48.402;10.670;2023-12-22T00:56:00;3.03;;;2.93;;
10489;SDS011;35569;48.402;10.670;2023-12-22T00:56:34;3.40;;;3.30;;
10489;SDS011;35569;48.402;10.670;2023-12-22T00:57:09;3.50;;;3.40;;
10489;SDS011;35569;48.402;10.670;2023-12-22T00:57:42;3.20;;;3.10;;
10489;SDS011;35569;48.402;10.670;2023-12-22T00:58:14;4.60;;;4.43;;
10489;SDS011;35569;48.402;10.670;2023-12-22T00:58:47;22.87;;;20.87;;
10489;SDS011;35569;48.402;10.670;2023-12-22T00:59:32;6.10;;;5.80;;
10489;SDS011;35569;48.402;10.670;2023-12-22T01:00:05;5.07;;;4.87;;
10489;SDS011;35569;48.402;10.670;2023-12-22T01:00:42;4.60;;;4.50;;
10489;SDS011;35569;48.402;10.670;2023-12-22T01:01:17;5.37;;;5.07;;
10489;SDS011;35569;48.402;10.670;2023-12-22T01:01:49;5.50;;;5.20;;
10489;SDS011;35569;48.402;10.670;2023-12-22T01:02:22;5.10;;;5.00;;
10489;SDS011;35569;48.402;10.670;2023-12-22T01:02:54;5.70;;;5.40;;
10489;SDS011;35569;48.402;10.670;2023-12-22T01:03:29;5.30;;;5.00;;
10489;SDS011;35569;48.402;10.670;2023-12-22T01:04:02;4.67;;;4.37;;
10489;SDS011;35569;48.402;10.670;2023-12-22T01:04:35;4.73;;;4.53;;
10489;SDS011;35569;48.402;10.670;2023-12-22T01:05:07;5.03;;;4.83;;
10489;SDS011;35569;48.402;10.670;2023-12-22T01:05:43;6.70;;;6.17;;
10489;SDS011;35569;48.402;10.670;2023-12-22T01:06:15;6.10;;;5.90;;
10489;SDS011;35569;48.402;10.670;2023-12-22T01:06:48;6.30;;;5.80;;
10489;SDS011;35569;48.402;10.670;2023-12-22T01:07:20;6.20;;;5.93;;
10489;SDS011;35569;48.402;10.670;2023-12-22T01:07:55;6.37;;;6.07;;
10489;SDS011;35569;48.402;10.670;2023-12-22T01:08:28;6.47;;;6.07;;
10489;SDS011;35569;48.402;10.670;2023-12-22T01:09:00;5.80;;;5.50;;
10489;SDS011;35569;48.402;10.670;2023-12-22T01:09:33;5.63;;;5.43;;
10489;SDS011;35569;48.402;10.670;2023-12-22T01:10:08;5.67;;;5.47;;
10489;SDS011;35569;48.402;10.670;2023-12-22T01:10:44;5.73;;;5.53;;
10489;SDS011;35569;48.402;10.670;2023-12-22T01:11:16;6.63;;;6.33;;
10489;SDS011;35569;48.402;10.670;2023-12-22T01:11:51;5.40;;;5.20;;
10489;SDS011;35569;48.402;10.670;2023-12-22T01:12:24;5.57;;;5.30;;
10489;SDS011;35569;48.402;10.670;2023-12-22T01:12:56;5.70;;;5.40;;
10489;SDS011;35569;48.402;10.670;2023-12-22T01:13:29;5.50;;;5.30;;
10489;SDS011;35569;48.402;10.670;2023-12-22T01:14:04;5.50;;;5.30;;
10489;SDS011;35569;48.402;10.670;2023-12-22T01:14:37;6.03;;;5.73;;
10489;SDS011;35569;48.402;10.670;2023-12-22T01:15:10;5.70;;;5.40;;
10489;SDS011;35569;48.402;10.670;2023-12-22T01:15:42;6.30;;;6.00;;
10489;SDS011;35569;48.402;10.670;2023-12-22T01:16:17;5.53;;;5.33;;
10489;SDS011;35569;48.402;10.670;2023-12-22T01:16:53;5.97;;;5.67;;
10489;SDS011;35569;48.402;10.670;2023-12-22T01:17:25;5.40;;;5.20;;
10489;SDS011;35569;48.402;10.670;2023-12-22T01:17:58;5.40;;;5.20;;
10489;SDS011;35569;48.402;10.670;2023-12-22T01:18:33;5.50;;;5.30;;
10489;SDS011;35569;48.402;10.670;2023-12-22T01:19:06;5.70;;;5.33;;
10489;SDS011;35569;48.402;10.670;2023-12-22T01:19:38;5.50;;;5.30;;
10489;SDS011;35569;48.402;10.670;2023-12-22T01:20:13;5.87;;;5.60;;
10489;SDS011;35569;48.402;10.670;2023-12-22T01:20:46;5.77;;;5.57;;
10489;SDS011;35569;48.402;10.670;2023-12-22T01:21:18;5.80;;;5.60;;
10489;SDS011;35569;48.402;10.670;2023-12-22T01:21:53;5.03;;;4.83;;
10489;SDS011;35569;48.402;10.670;2023-12-22T01:22:26;5.70;;;5.40;;
10489;SDS011;35569;48.402;10.670;2023-12-22T01:22:58;5.60;;;5.30;;
10489;SDS011;35569;48.402;10.670;2023-12-22T01:23:31;6.07;;;5.77;;
10489;SDS011;35569;48.402;10.670;2023-12-22T01:24:06;5.47;;;5.27;;
10489;SDS011;35569;48.402;10.670;2023-12-22T01:24:38;5.43;;;5.23;;
10489;SDS011;35569;48.402;10.670;2023-12-22T01:25:14;5.87;;;5.57;;
10489;SDS011;35569;48.402;10.670;2023-12-22T01:25:49;5.83;;;5.47;;
10489;SDS011;35569;48.402;10.670;2023-12-22T01:26:24;4.30;;;4.17;;
10489;SDS011;35569;48.402;10.670;2023-12-22T01:26:57;5.47;;;5.27;;
10489;SDS011;35569;48.402;10.670;2023-12-22T01:27:30;5.07;;;4.97;;
10489;SDS011;35569;48.402;10.670;2023-12-22T01:28:05;5.70;;;5.40;;
10489;SDS011;35569;48.402;10.670;2023-12-22T01:28:37;5.50;;;5.30;;
10489;SDS011;35569;48.402;10.670;2023-12-22T01:29:10;5.10;;;4.90;;
10489;SDS011;35569;48.402;10.670;2023-12-22T01:29:42;4.60;;;4.50;;
10489;SDS011;35569;48.402;10.670;2023-12-22T01:30:17;5.23;;;5.03;;
10489;SDS011;35569;48.402;10.670;2023-12-22T01:30:50;4.90;;;4.70;;
10489;SDS011;35569;48.402;10.670;2023-12-22T01:31:22;4.80;;;4.60;;
10489;SDS011;35569;48.402;10.670;2023-12-22T01:31:57;4.47;;;4.33;;
10489;SDS011;35569;48.402;10.670;2023-12-22T01:32:30;5.07;;;4.87;;
10489;SDS011;35569;48.402;10.670;2023-12-22T01:33:06;5.20;;;5.10;;
10489;SDS011;35569;48.402;10.670;2023-12-22T01:33:42;5.00;;;4.77;;
10489;SDS011;35569;48.402;10.670;2023-12-22T01:34:14;4.90;;;4.70;;
10489;SDS011;35569;48.402;10.670;2023-12-22T01:34:47;4.17;;;4.07;;
10489;SDS011;35569;48.402;10.670;2023-12-22T01:35:19;4.50;;;4.20;;
10489;SDS011;35569;48.402;10.670;2023-12-22T01:35:54;4.97;;;4.77;;
10489;SDS011;35569;48.402;10.670;2023-12-22T01:36:26;4.60;;;4.40;;
10489;SDS011;35569;48.402;10.670;2023-12-22T01:36:59;4.10;;;4.00;;
10489;SDS011;35569;48.402;10.670;2023-12-22T01:37:31;4.50;;;4.40;;
10489;SDS011;35569;48.402;10.670;2023-12-22T01:38:06;4.10;;;4.00;;
10489;SDS011;35569;48.402;10.670;2023-12-22T01:38:38;5.20;;;5.00;;
10489;SDS011;35569;48.402;10.670;2023-12-22T01:39:11;4.67;;;4.47;;
10489;SDS011;35569;48.402;10.670;2023-12-22T01:39:46;4.10;;;4.00;;
10489;SDS011;35569;48.402;10.670;2023-12-22T01:40:18;4.40;;;4.30;;
10489;SDS011;35569;48.402;10.670;2023-12-22T01:40:53;4.80;;;4.50;;
10489;SDS011;35569;48.402;10.670;2023-12-22T01:41:26;4.07;;;3.90;;
10489;SDS011;35569;48.402;10.670;2023-12-22T01:41:58;4.30;;;4.20;;
10489;SDS011;35569;48.402;10.670;2023-12-22T01:42:33;4.17;;;3.97;;
10489;SDS011;35569;48.402;10.670;2023-12-22T01:43:06;3.90;;;3.80;;
10489;SDS011;35569;48.402;10.670;2023-12-22T01:43:38;4.30;;;4.10;;
10489;SDS011;35569;48.402;10.670;2023-12-22T01:44:11;3.97;;;3.77;;
10489;SDS011;35569;48.402;10.670;2023-12-22T01:44:46;5.17;;;4.93;;
10489;SDS011;35569;48.402;10.670;2023-12-22T01:45:18;4.13;;;3.93;;
10489;SDS011;35569;48.402;10.670;2023-12-22T01:45:51;3.90;;;3.80;;
10489;SDS011;35569;48.402;10.670;2023-12-22T01:46:26;3.33;;;3.23;;
10489;SDS011;35569;48.402;10.670;2023-12-22T01:47:01;3.50;;;3.40;;
10489;SDS011;35569;48.402;10.670;2023-12-22T01:47:34;4.10;;;4.00;;
10489;SDS011;35569;48.402;10.670;2023-12-22T01:48:07;4.37;;;4.20;;
10489;SDS011;35569;48.402;10.670;2023-12-22T01:48:39;3.60;;;3.50;;
10489;SDS011;35569;48.402;10.670;2023-12-22T01:49:15;4.57;;;4.37;;
10489;SDS011;35569;48.402;10.670;2023-12-22T01:49:47;3.03;;;2.93;;
10489;SDS011;35569;48.402;10.670;2023-12-22T01:50:20;3.87;;;3.67;;
10489;SDS011;35569;48.402;10.670;2023-12-22T01:50:56;3.50;;;3.40;;
10489;SDS011;35569;48.402;10.670;2023-12-22T01:51:30;2.07;;;1.97;;
10489;SDS011;35569;48.402;10.670;2023-12-22T01:52:03;3.77;;;3.67;;
10489;SDS011;35569;48.402;10.670;2023-12-22T01:52:36;3.37;;;3.27;;
10489;SDS011;35569;48.402;10.670;2023-12-22T01:53:11;3.80;;;3.70;;
10489;SDS011;35569;48.402;10.670;2023-12-22T01:53:44;3.40;;;3.30;;
10489;SDS011;35569;48.402;10.670;2023-12-22T01:54:17;3.13;;;3.00;;
10489;SDS011;35569;48.402;10.670;2023-12-22T01:54:50;3.93;;;3.80;;
10489;SDS011;35569;48.402;10.670;2023-12-22T01:55:26;3.40;;;3.30;;
10489;SDS011;35569;48.402;10.670;2023-12-22T01:56:01;3.73;;;3.63;;
10489;SDS011;35569;48.402;10.670;2023-12-22T01:56:35;3.70;;;3.60;;
10489;SDS011;35569;48.402;10.670;2023-12-22T01:57:07;3.17;;;3.07;;
10489;SDS011;35569;48.402;10.670;2023-12-22T01:57:42;3.40;;;3.30;;
10489;SDS011;35569;48.402;10.670;2023-12-22T01:58:16;3.57;;;3.47;;
10489;SDS011;35569;48.402;10.670;2023-12-22T01:58:49;3.30;;;3.20;;
10489;SDS011;35569;48.402;10.670;2023-12-22T01:59:23;3.33;;;3.10;;
10489;SDS011;35569;48.402;10.670;2023-12-22T01:59:58;3.10;;;3.00;;
10489;SDS011;35569;48.402;10.670;2023-12-22T02:00:31;4.07;;;3.97;;
10489;SDS011;35569;48.402;10.670;2023-12-22T02:01:03;3.30;;;3.20;;
10489;SDS011;35569;48.402;10.670;2023-12-22T02:01:36;3.60;;;3.40;;
10489;SDS011;35569;48.402;10.670;2023-12-22T02:02:11;3.10;;;3.00;;
10489;SDS011;35569;48.402;10.670;2023-12-22T02:02:44;3.27;;;3.17;;
10489;SDS011;35569;48.402;10.670;2023-12-22T02:03:16;3.60;;;3.50;;
10489;SDS011;35569;48.402;10.670;2023-12-22T02:03:49;2.90;;;2.80;;
10489;SDS011;35569;48.402;10.670;2023-12-22T02:04:24;2.90;;;2.80;;
10489;SDS011;35569;48.402;10.670;2023-12-22T02:04:58;3.67;;;3.57;;
10489;SDS011;35569;48.402;10.670;2023-12-22T02:05:31;3.63;;;3.43;;
10489;SDS011;35569;48.402;10.670;2023-12-22T02:06:06;4.10;;;3.20;;
10489;SDS011;35569;48.402;10.670;2023-12-22T02:06:39;3.43;;;3.33;;
10489;SDS011;35569;48.402;10.670;2023-12-22T02:07:12;3.33;;;3.23;;
10489;SDS011;35569;48.402;10.670;2023-12-22T02:07:44;3.10;;;3.00;;
10489;SDS011;35569;48.402;10.670;2023-12-22T02:08:18;2.70;;;2.70;;
10489;SDS011;35569;48.402;10.670;2023-12-22T02:08:53;3.10;;;2.90;;
10489;SDS011;35569;48.402;10.670;2023-12-22T02:09:26;2.93;;;2.83;;
10489;SDS011;35569;48.402;10.670;2023-12-22T02:09:58;3.27;;;3.17;;
10489;SDS011;35569;48.402;10.670;2023-12-22T02:10:31;2.87;;;2.77;;
10489;SDS011;35569;48.402;10.670;2023-12-22T02:11:08;2.93;;;2.83;;
10489;SDS011;35569;48.402;10.670;2023-12-22T02:11:41;3.20;;;3.10;;
10489;SDS011;35569;48.402;10.670;2023-12-22T02:12:13;4.50;;;3.37;;
10489;SDS011;35569;48.402;10.670;2023-12-22T02:12:46;3.30;;;3.10;;
10489;SDS011;35569;48.402;10.670;2023-12-22T02:13:21;3.37;;;3.10;;
10489;SDS011;35569;48.402;10.670;2023-12-22T02:13:53;3.20;;;3.10;;
10489;SDS011;35569;48.402;10.670;2023-12-22T02:14:25;2.77;;;2.67;;
10489;SDS011;35569;48.402;10.670;2023-12-22T02:14:58;2.70;;;2.70;;
10489;SDS011;35569;48.402;10.670;2023-12-22T02:15:33;2.70;;;2.60;;
10489;SDS011;35569;48.402;10.670;2023-12-22T02:16:08;3.00;;;3.00;;
10489;SDS011;35569;48.402;10.670;2023-12-22T02:16:46;3.00;;;2.90;;
10489;SDS011;35569;48.402;10.670;2023-12-22T02:17:25;2.33;;;2.33;;
10489;SDS011;35569;48.402;10.670;2023-12-22T02:18:04;2.87;;;2.77;;
10489;SDS011;35569;48.402;10.670;2023-12-22T02:18:41;2.67;;;2.57;;
10489;SDS011;35569;48.402;10.670;2023-12-22T02:19:21;2.57;;;2.47;;
10489;SDS011;35569;48.402;10.670;2023-12-22T02:19:55;2.60;;;2.60;;
10489;SDS011;35569;48.402;10.670;2023-12-22T02:20:31;3.30;;;3.20;;
10489;SDS011;35569;48.402;10.670;2023-12-22T02:21:04;2.83;;;2.73;;
10489;SDS011;35569;48.402;10.670;2023-12-22T02:21:36;2.50;;;2.40;;
10489;SDS011;35569;48.402;10.670;2023-12-22T02:22:10;2.63;;;2.53;;
10489;SDS011;35569;48.402;10.670;2023-12-22T02:22:50;2.33;;;2.23;;
10489;SDS011;35569;48.402;10.670;2023-12-22T02:23:23;2.40;;;2.40;;
10489;SDS011;35569;48.402;10.670;2023-12-22T02:23:55;2.60;;;2.50;;
10489;SDS011;35569;48.402;10.670;2023-12-22T02:24:28;3.43;;;2.70;;
10489;SDS011;35569;48.402;10.670;2023-12-22T02:25:02;2.50;;;2.40;;
10489;SDS011;35569;48.402;10.670;2023-12-22T02:25:37;2.37;;;2.27;;
10489;SDS011;35569;48.402;10.670;2023-12-22T02:26:12;2.33;;;2.23;;
10489;SDS011;35569;48.402;10.670;2023-12-22T02:26:48;2.30;;;2.20;;
10489;SDS011;35569;48.402;10.670;2023-12-22T02:27:25;2.23;;;2.23;;
10489;SDS011;35569;48.402;10.670;2023-12-22T02:28:01;2.13;;;2.07;;
10489;SDS011;35569;48.402;10.670;2023-12-22T02:28:38;2.40;;;2.30;;
10489;SDS011;35569;48.402;10.670;2023-12-22T02:29:12;2.93;;;2.83;;
10489;SDS011;35569;48.402;10.670;2023-12-22T02:29:48;2.40;;;2.40;;
10489;SDS011;35569;48.402;10.670;2023-12-22T02:30:24;2.20;;;2.20;;
10489;SDS011;35569;48.402;10.670;2023-12-22T02:31:02;2.33;;;2.23;;
10489;SDS011;35569;48.402;10.670;2023-12-22T02:31:38;2.50;;;2.30;;
10489;SDS011;35569;48.402;10.670;2023-12-22T02:32:17;1.93;;;1.93;;
10489;SDS011;35569;48.402;10.670;2023-12-22T02:32:55;2.13;;;2.03;;
10489;SDS011;35569;48.402;10.670;2023-12-22T02:33:32;2.57;;;2.37;;
10489;SDS011;35569;48.402;10.670;2023-12-22T02:34:07;2.33;;;2.23;;
10489;SDS011;35569;48.402;10.670;2023-12-22T02:34:44;2.27;;;2.17;;
10489;SDS011;35569;48.402;10.670;2023-12-22T02:35:20;2.20;;;2.07;;
10489;SDS011;35569;48.402;10.670;2023-12-22T02:35:58;2.00;;;2.00;;
10489;SDS011;35569;48.402;10.670;2023-12-22T02:36:35;1.90;;;1.90;;
10489;SDS011;35569;48.402;10.670;2023-12-22T02:37:08;2.30;;;2.20;;
10489;SDS011;35569;48.402;10.670;2023-12-22T02:37:41;1.93;;;1.93;;
10489;SDS011;35569;48.402;10.670;2023-12-22T02:38:19;2.10;;;2.00;;
10489;SDS011;35569;48.402;10.670;2023-12-22T02:38:52;2.47;;;2.37;;
10489;SDS011;35569;48.402;10.670;2023-12-22T02:39:26;1.77;;;1.77;;
10489;SDS011;35569;48.402;10.670;2023-12-22T02:39:58;2.10;;;2.10;;
10489;SDS011;35569;48.402;10.670;2023-12-22T02:40:34;2.00;;;1.90;;
10489;SDS011;35569;48.402;10.670;2023-12-22T02:41:07;2.00;;;1.90;;
10489;SDS011;35569;48.402;10.670;2023-12-22T02:41:40;2.13;;;1.90;;
10489;SDS011;35569;48.402;10.670;2023-12-22T02:42:13;2.10;;;2.00;;
10489;SDS011;35569;48.402;10.670;2023-12-22T02:42:48;1.70;;;1.70;;
10489;SDS011;35569;48.402;10.670;2023-12-22T02:43:20;2.00;;;1.90;;
10489;SDS011;35569;48.402;10.670;2023-12-22T02:43:53;1.50;;;1.50;;
10489;SDS011;35569;48.402;10.670;2023-12-22T02:44:25;1.97;;;1.87;;
10489;SDS011;35569;48.402;10.670;2023-12-22T02:45:01;1.60;;;1.60;;
10489;SDS011;35569;48.402;10.670;2023-12-22T02:45:34;1.83;;;1.73;;
10489;SDS011;35569;48.402;10.670;2023-12-22T02:46:12;1.60;;;1.60;;
10489;SDS011;35569;48.402;10.670;2023-12-22T02:46:46;1.60;;;1.60;;
10489;SDS011;35569;48.402;10.670;2023-12-22T02:47:21;2.07;;;2.07;;
10489;SDS011;35569;48.402;10.670;2023-12-22T02:47:53;2.10;;;2.10;;
10489;SDS011;35569;48.402;10.670;2023-12-22T02:48:26;1.53;;;1.53;;
10489;SDS011;35569;48.402;10.670;2023-12-22T02:49:01;1.87;;;1.80;;
10489;SDS011;35569;48.402;10.670;2023-12-22T02:49:33;1.70;;;1.70;;
10489;SDS011;35569;48.402;10.670;2023-12-22T02:50:06;2.10;;;1.80;;
10489;SDS011;35569;48.402;10.670;2023-12-22T02:50:40;1.67;;;1.67;;
10489;SDS011;35569;48.402;10.670;2023-12-22T02:51:15;1.83;;;1.83;;
10489;SDS011;35569;48.402;10.670;2023-12-22T02:51:47;1.57;;;1.57;;
10489;SDS011;35569;48.402;10.670;2023-12-22T02:52:19;2.13;;;2.03;;
10489;SDS011;35569;48.402;10.670;2023-12-22T02:52:52;1.80;;;1.80;;
10489;SDS011;35569;48.402;10.670;2023-12-22T02:53:29;1.90;;;1.53;;
10489;SDS011;35569;48.402;10.670;2023-12-22T02:54:02;1.70;;;1.70;;
10489;SDS011;35569;48.402;10.670;2023-12-22T02:54:35;1.90;;;1.90;;
10489;SDS011;35569;48.402;10.670;2023-12-22T02:55:11;1.70;;;1.70;;
10489;SDS011;35569;48.402;10.670;2023-12-22T02:55:47;1.50;;;1.50;;
10489;SDS011;35569;48.402;10.670;2023-12-22T02:56:19;1.70;;;1.70;;
10489;SDS011;35569;48.402;10.670;2023-12-22T02:56:51;1.83;;;1.60;;
10489;SDS011;35569;48.402;10.670;2023-12-22T02:57:24;1.43;;;1.30;;
10489;SDS011;35569;48.402;10.670;2023-12-22T02:57:59;1.60;;;1.60;;
10489;SDS011;35569;48.402;10.670;2023-12-22T02:58:31;1.70;;;1.70;;
10489;SDS011;35569;48.402;10.670;2023-12-22T02:59:04;1.57;;;1.57;;
10489;SDS011;35569;48.402;10.670;2023-12-22T02:59:36;1.60;;;1.60;;
10489;SDS011;35569;48.402;10.670;2023-12-22T03:00:12;1.43;;;1.43;;
10489;SDS011;35569;48.402;10.670;2023-12-22T03:00:44;1.53;;;1.40;;
10489;SDS011;35569;48.402;10.670;2023-12-22T03:01:18;1.40;;;1.40;;
10489;SDS011;35569;48.402;10.670;2023-12-22T03:01:50;1.50;;;1.50;;
10489;SDS011;35569;48.402;10.670;2023-12-22T03:02:25;1.50;;;1.40;;
10489;SDS011;35569;48.402;10.670;2023-12-22T03:02:57;1.40;;;1.40;;
10489;SDS011;35569;48.402;10.670;2023-12-22T03:03:30;1.20;;;1.20;;
10489;SDS011;35569;48.402;10.670;2023-12-22T03:04:02;1.40;;;1.40;;
10489;SDS011;35569;48.402;10.670;2023-12-22T03:04:37;1.33;;;1.33;;
10489;SDS011;35569;48.402;10.670;2023-12-22T03:05:10;1.03;;;1.03;;
10489;SDS011;35569;48.402;10.670;2023-12-22T03:05:42;1.13;;;1.13;;
10489;SDS011;35569;48.402;10.670;2023-12-22T03:06:15;1.10;;;1.10;;
10489;SDS011;35569;48.402;10.670;2023-12-22T03:06:50;1.30;;;1.30;;
10489;SDS011;35569;48.402;10.670;2023-12-22T03:07:22;1.00;;;1.00;;
10489;SDS011;35569;48.402;10.670;2023-12-22T03:07:55;1.03;;;1.03;;
10489;SDS011;35569;48.402;10.670;2023-12-22T03:08:30;1.20;;;1.03;;
10489;SDS011;35569;48.402;10.670;2023-12-22T03:09:05;1.40;;;1.30;;
10489;SDS011;35569;48.402;10.670;2023-12-22T03:09:37;1.20;;;1.20;;
10489;SDS011;35569;48.402;10.670;2023-12-22T03:10:10;1.13;;;1.13;;
10489;SDS011;35569;48.402;10.670;2023-12-22T03:10:42;1.50;;;1.50;;
10489;SDS011;35569;48.402;10.670;2023-12-22T03:11:17;0.93;;;0.93;;
10489;SDS011;35569;48.402;10.670;2023-12-22T03:11:50;1.20;;;1.20;;
10489;SDS011;35569;48.402;10.670;2023-12-22T03:12:23;1.10;;;1.10;;
10489;SDS011;35569;48.402;10.670;2023-12-22T03:12:56;1.10;;;1.10;;
10489;SDS011;35569;48.402;10.670;2023-12-22T03:13:31;1.17;;;1.17;;
10489;SDS011;35569;48.402;10.670;2023-12-22T03:14:03;2.00;;;1.23;;
10489;SDS011;35569;48.402;10.670;2023-12-22T03:14:36;1.77;;;1.13;;
10489;SDS011;35569;48.402;10.670;2023-12-22T03:15:11;0.87;;;0.87;;
10489;SDS011;35569;48.402;10.670;2023-12-22T03:15:43;1.17;;;1.17;;
10489;SDS011;35569;48.402;10.670;2023-12-22T03:16:16;0.90;;;0.90;;
10489;SDS011;35569;48.402;10.670;2023-12-22T03:16:48;1.00;;;1.00;;
10489;SDS011;35569;48.402;10.670;2023-12-22T03:17:23;1.30;;;1.20;;
10489;SDS011;35569;48.402;10.670;2023-12-22T03:17:56;1.20;;;1.20;;
10489;SDS011;35569;48.402;10.670;2023-12-22T03:18:28;1.20;;;1.10;;
10489;SDS011;35569;48.402;10.670;2023-12-22T03:19:01;2.07;;;1.40;;
10489;SDS011;35569;48.402;10.670;2023-12-22T03:19:33;1.10;;;1.10;;
10489;SDS011;35569;48.402;10.670;2023-12-22T03:20:09;1.30;;;0.90;;